Time;durP1;ratioP1;P1;durP2;ratioP2;P2;SDS_P1;SDS_P2;PMS_P1;PMS_P2;Temp;Humidity;BMP_temperature;BMP_pressure;BME280_temperature;BME280_humidity;BME280_pressure;Samples;Min_cycle;Max_cycle;Signal;HPM_P1;HPM_P2
2023/06/26 00:01:51;;;;;;;;;;;;;;;;;;5054754;28;19909;-31
2023/06/26 00:04:16;;;;;;;;;;;;;;;;;;5054910;28;19966;-29
2023/06/26 00:06:42;;;;;;;;;;;;;;;;;;5054585;28;20424;-28
2023/06/26 00:09:08;;;;;;;;;;;;;;;;;;5054569;28;20335;-27
2023/06/26 00:11:34;;;;;;;;;;;;;;;;;;5054608;28;19960;-32
2023/06/26 00:14:00;;;;;;;;;;;;;;;;;;5054882;28;19921;-33
2023/06/26 00:16:26;;;;;;;;;;;;;;;;;;5054627;28;19956;-25
2023/06/26 00:18:52;;;;;;;;;;;;;;;;;;5054538;28;19913;-27
2023/06/26 00:21:19;;;;;;;;;;;;;;;;;;5054787;28;19908;-29
2023/06/26 00:23:45;;;;;;;;;;;;;;;;;;5054384;28;19908;-29
2023/06/26 00:26:10;;;;;;;;;;;;;;;;;;5054554;28;19949;-27
2023/06/26 00:28:36;;;;;;;;;;;;;;;;;;5040922;28;19923;-24
2023/06/26 00:31:02;;;;;;;;;;;;;;;;;;5058771;28;19915;-27
2023/06/26 00:33:28;;;;;;;;;;;;;;;;;;5058410;28;19909;-26
2023/06/26 00:35:54;;;;;;;;;;;;;;;;;;5058668;28;19916;-23
2023/06/26 00:38:21;;;;;;;;;;;;;;;;;;5058559;28;20252;-28
2023/06/26 00:40:47;;;;;;;;;;;;;;;;;;5058251;28;19939;-27
2023/06/26 00:43:12;;;;;;;;;;;;;;;;;;5058283;28;20247;-29
2023/06/26 00:45:38;;;;;;;;;;;;;;;;;;5058236;28;20327;-26
2023/06/26 00:48:04;;;;;;;;;;;;;;;;;;5058475;28;20424;-26
2023/06/26 00:50:30;;;;;;;;;;;;;;;;;;5058080;28;19919;-27
2023/06/26 00:53:00;;;;;;;;;;;;;;;;;;5058120;28;19913;-26
2023/06/26 00:55:26;;;;;;;;;;;;;;;;;;5058300;28;20007;-26
2023/06/26 00:57:52;;;;;;;;;;;;;;;;;;5058194;28;20252;-29
2023/06/26 01:00:18;;;;;;;;;;;;;;;;;;5040412;28;19996;-27
2023/06/26 01:02:44;;;;;;;;;;;;;;;;;;5057915;28;20357;-30
2023/06/26 01:05:12;;;;;;;;;;;;;;;;;;5057800;28;19958;-30
2023/06/26 01:07:39;;;;;;;;;;;;;;;;;;5057673;28;19966;-26
2023/06/26 01:10:04;;;;;;;;;;;;;;;;;;5057684;28;19941;-29
2023/06/26 01:12:31;;;;;;;;;;;;;;;;;;5057966;28;19909;-26
2023/06/26 01:14:57;;;;;;;;;;;;;;;;;;5058041;28;19916;-23
2023/06/26 01:17:23;;;;;;;;;;;;;;;;;;5057562;28;20356;-31
2023/06/26 01:19:49;;;;;;;;;;;;;;;;;;5057567;28;19908;-27
2023/06/26 01:22:15;;;;;;;;;;;;;;;;;;5057805;28;19909;-28
2023/06/26 01:24:41;;;;;;;;;;;;;;;;;;5057715;28;19909;-25
2023/06/26 01:27:07;;;;;;;;;;;;;;;;;;5057520;28;19917;-23
2023/06/26 01:29:33;;;;;;;;;;;;;;;;;;5057367;28;20011;-29
2023/06/26 01:31:59;;;;;;;;;;;;;;;;;;5058104;28;19959;-24
2023/06/26 01:34:25;;;;;;;;;;;;;;;;;;5057387;28;19995;-31
2023/06/26 01:36:51;;;;;;;;;;;;;;;;;;5057591;28;20390;-29
2023/06/26 01:39:17;;;;;;;;;;;;;;;;;;5056951;28;19913;-30
2023/06/26 01:41:43;;;;;;;;;;;;;;;;;;5057124;28;20016;-26
2023/06/26 01:44:09;;;;;;;;;;;;;;;;;;5057178;28;19969;-26
2023/06/26 01:46:35;;;;;;;;;;;;;;;;;;5057058;28;20011;-26
2023/06/26 01:49:01;;;;;;;;;;;;;;;;;;5056976;28;20244;-26
2023/06/26 01:51:27;;;;;;;;;;;;;;;;;;5057261;28;19913;-31
2023/06/26 01:53:53;;;;;;;;;;;;;;;;;;5056893;28;19916;-25
2023/06/26 01:56:19;;;;;;;;;;;;;;;;;;5039542;28;19909;-29
2023/06/26 01:58:45;;;;;;;;;;;;;;;;;;5056861;28;19917;-28
2023/06/26 02:01:11;;;;;;;;;;;;;;;;;;5039267;28;19909;-25
2023/06/26 02:03:37;;;;;;;;;;;;;;;;;;5056791;28;19924;-27
2023/06/26 02:06:03;;;;;;;;;;;;;;;;;;5056903;28;19913;-25
2023/06/26 02:08:28;;;;;;;;;;;;;;;;;;5056856;28;20308;-29
2023/06/26 02:10:54;;;;;;;;;;;;;;;;;;5056901;28;20349;-29
2023/06/26 02:13:20;;;;;;;;;;;;;;;;;;5056650;28;20314;-28
2023/06/26 02:15:46;;;;;;;;;;;;;;;;;;5056778;28;19924;-30
2023/06/26 02:18:12;;;;;;;;;;;;;;;;;;5056392;28;19909;-30
2023/06/26 02:20:39;;;;;;;;;;;;;;;;;;5056419;28;19909;-24
2023/06/26 02:23:05;;;;;;;;;;;;;;;;;;5056390;28;19919;-27
2023/06/26 02:25:31;;;;;;;;;;;;;;;;;;5056501;28;19912;-26
2023/06/26 02:27:57;;;;;;;;;;;;;;;;;;5056230;28;19924;-27
2023/06/26 02:30:23;;;;;;;;;;;;;;;;;;5056525;28;20323;-25
2023/06/26 02:32:49;;;;;;;;;;;;;;;;;;5056222;28;19909;-28
2023/06/26 02:35:15;;;;;;;;;;;;;;;;;;5056155;28;19966;-25
2023/06/26 02:37:40;;;;;;;;;;;;;;;;;;5056020;28;19982;-29
2023/06/26 02:40:08;;;;;;;;;;;;;;;;;;5055894;28;19976;-26
2023/06/26 02:42:34;;;;;;;;;;;;;;;;;;5056342;28;20247;-26
2023/06/26 02:45:00;;;;;;;;;;;;;;;;;;5055898;28;19908;-27
2023/06/26 02:47:26;;;;;;;;;;;;;;;;;;5038331;28;19913;-23
2023/06/26 02:49:52;;;;;;;;;;;;;;;;;;5056021;28;19996;-30
2023/06/26 02:52:18;;;;;;;;;;;;;;;;;;5055916;28;20232;-27
2023/06/26 02:54:44;;;;;;;;;;;;;;;;;;5055820;28;20029;-25
2023/06/26 02:57:10;;;;;;;;;;;;;;;;;;5055757;28;20017;-33
2023/06/26 02:59:36;;;;;;;;;;;;;;;;;;5055746;28;19919;-23
2023/06/26 03:02:02;;;;;;;;;;;;;;;;;;5055682;28;19930;-25
2023/06/26 03:04:28;;;;;;;;;;;;;;;;;;5055591;28;20339;-29
2023/06/26 03:06:54;;;;;;;;;;;;;;;;;;5055321;28;20347;-29
2023/06/26 03:09:20;;;;;;;;;;;;;;;;;;5055533;28;19987;-26
2023/06/26 03:11:46;;;;;;;;;;;;;;;;;;5055417;28;19905;-31
2023/06/26 03:14:12;;;;;;;;;;;;;;;;;;5055412;28;19963;-26
2023/06/26 03:16:38;;;;;;;;;;;;;;;;;;5055381;28;19962;-30
2023/06/26 03:19:04;;;;;;;;;;;;;;;;;;5055500;28;19956;-26
2023/06/26 03:21:30;;;;;;;;;;;;;;;;;;5055298;28;19905;-27
2023/06/26 03:23:56;;;;;;;;;;;;;;;;;;5055254;28;19909;-24
2023/06/26 03:26:28;;;;;;;;;;;;;;;;;;5055049;28;19932;-29
2023/06/26 03:28:54;;;;;;;;;;;;;;;;;;5055169;28;19909;-26
2023/06/26 03:31:20;;;;;;;;;;;;;;;;;;5055444;28;20308;-29
2023/06/26 03:33:46;;;;;;;;;;;;;;;;;;5055307;28;19908;-28
2023/06/26 03:36:12;;;;;;;;;;;;;;;;;;5055008;28;19908;-27
2023/06/26 03:38:38;;;;;;;;;;;;;;;;;;5054904;28;19908;-24
2023/06/26 03:41:04;;;;;;;;;;;;;;;;;;5054736;28;20307;-31
2023/06/26 03:43:30;;;;;;;;;;;;;;;;;;5054738;28;19913;-32
2023/06/26 03:45:56;;;;;;;;;;;;;;;;;;5054851;28;19970;-33
2023/06/26 03:48:22;;;;;;;;;;;;;;;;;;5054672;28;19920;-28
2023/06/26 03:50:48;;;;;;;;;;;;;;;;;;5054653;28;19921;-26
2023/06/26 03:53:14;;;;;;;;;;;;;;;;;;5054543;28;19916;-27
2023/06/26 03:55:40;;;;;;;;;;;;;;;;;;5054399;28;19909;-27
2023/06/26 03:58:06;;;;;;;;;;;;;;;;;;5054581;28;19999;-29
2023/06/26 04:03:18;;;;;;;;;;;;;;;;;;5393053;22;19925;-21
2023/06/26 04:05:44;;;;;;;;;;;;;;;;;;5034281;28;19986;-21
2023/06/26 04:08:10;;;;;;;;;;;;;;;;;;5034525;28;19921;-21
2023/06/26 04:10:36;;;;;;;;;;;;;;;;;;5034758;28;19909;-20
2023/06/26 04:13:02;;;;;;;;;;;;;;;;;;5034358;28;19913;-21
2023/06/26 04:15:28;;;;;;;;;;;;;;;;;;5034420;28;19909;-21
2023/06/26 04:17:54;;;;;;;;;;;;;;;;;;5016567;28;20016;-21
2023/06/26 04:20:20;;;;;;;;;;;;;;;;;;5016764;28;19909;-20
2023/06/26 04:22:46;;;;;;;;;;;;;;;;;;5034168;28;19909;-23
2023/06/26 04:25:12;;;;;;;;;;;;;;;;;;5033938;28;19921;-20
2023/06/26 04:27:38;;;;;;;;;;;;;;;;;;5034413;28;19909;-22
2023/06/26 04:30:04;;;;;;;;;;;;;;;;;;5034173;28;20000;-19
2023/06/26 04:32:30;;;;;;;;;;;;;;;;;;5033664;28;19909;-20
2023/06/26 04:34:56;;;;;;;;;;;;;;;;;;5033894;28;19921;-23
2023/06/26 04:37:22;;;;;;;;;;;;;;;;;;5033859;28;19936;-23
2023/06/26 04:39:48;;;;;;;;;;;;;;;;;;5033975;28;19909;-22
2023/06/26 04:42:14;;;;;;;;;;;;;;;;;;5016202;28;19909;-23
2023/06/26 04:44:41;;;;;;;;;;;;;;;;;;5033731;28;19909;-20
2023/06/26 04:47:07;;;;;;;;;;;;;;;;;;5033725;28;19913;-21
2023/06/26 04:49:32;;;;;;;;;;;;;;;;;;5033514;28;19916;-22
2023/06/26 04:52:00;;;;;;;;;;;;;;;;;;5033675;28;19913;-22
2023/06/26 04:54:25;;;;;;;;;;;;;;;;;;5033937;28;19925;-21
2023/06/26 04:56:51;;;;;;;;;;;;;;;;;;5033757;28;19913;-21
2023/06/26 04:59:18;;;;;;;;;;;;;;;;;;5033812;28;19920;-22
2023/06/26 05:01:47;;;;;;;;;;;;;;;;;;5033473;28;19948;-21
2023/06/26 05:04:14;;;;;;;;;;;;;;;;;;5015338;28;19929;-21
2023/06/26 05:06:39;;;;;;;;;;;;;;;;;;5033285;28;19913;-20
2023/06/26 05:09:05;;;;;;;;;;;;;;;;;;5033565;28;19909;-23
2023/06/26 05:11:31;;;;;;;;;;;;;;;;;;5033455;28;19936;-21
2023/06/26 05:13:57;;;;;;;;;;;;;;;;;;5018490;28;19909;-21
2023/06/26 05:16:23;;;;;;;;;;;;;;;;;;5036955;28;20446;-20
2023/06/26 05:18:49;;;;;;;;;;;;;;;;;;5037201;28;20002;-20
2023/06/26 05:21:15;;;;;;;;;;;;;;;;;;5019310;28;19920;-20
2023/06/26 05:23:41;;;;;;;;;;;;;;;;;;5036915;28;20000;-23
2023/06/26 05:26:07;;;;;;;;;;;;;;;;;;5036956;28;19940;-23
2023/06/26 05:28:35;;;;;;;;;;;;;;;;;;5037798;28;19980;-21
2023/06/26 05:31:02;;;;;;;;;;;;;;;;;;5037021;28;19948;-20
2023/06/26 05:33:28;;;;;;;;;;;;;;;;;;5037042;28;19919;-21
2023/06/26 05:35:54;;;;;;;;;;;;;;;;;;5037196;28;20004;-21
2023/06/26 05:38:20;;;;;;;;;;;;;;;;;;5036929;28;19964;-21
2023/06/26 05:40:46;;;;;;;;;;;;;;;;;;5036779;28;19910;-22
2023/06/26 05:43:12;;;;;;;;;;;;;;;;;;5037508;28;19913;-21
2023/06/26 05:45:38;;;;;;;;;;;;;;;;;;5036722;28;19913;-20
2023/06/26 05:48:04;;;;;;;;;;;;;;;;;;5036911;28;19917;-21
2023/06/26 05:50:30;;;;;;;;;;;;;;;;;;5036360;28;19909;-22
2023/06/26 05:52:56;;;;;;;;;;;;;;;;;;5037082;28;19909;-22
2023/06/26 05:55:22;;;;;;;;;;;;;;;;;;5036806;28;19916;-22
2023/06/26 05:57:48;;;;;;;;;;;;;;;;;;5036762;28;19909;-20
2023/06/26 06:00:14;;;;;;;;;;;;;;;;;;5036599;28;20302;-21
2023/06/26 06:02:41;;;;;;;;;;;;;;;;;;5036244;28;19955;-21
2023/06/26 06:05:07;;;;;;;;;;;;;;;;;;5018687;28;20051;-21
2023/06/26 06:07:33;;;;;;;;;;;;;;;;;;5036523;28;19952;-21
2023/06/26 06:09:59;;;;;;;;;;;;;;;;;;5018930;28;19909;-22
2023/06/26 06:12:25;;;;;;;;;;;;;;;;;;5018684;28;19988;-22
2023/06/26 06:14:51;;;;;;;;;;;;;;;;;;5035855;28;20385;-21
2023/06/26 06:17:17;;;;;;;;;;;;;;;;;;5035956;28;19920;-22
2023/06/26 06:19:43;;;;;;;;;;;;;;;;;;5035831;28;19962;-20
2023/06/26 06:22:09;;;;;;;;;;;;;;;;;;5018128;28;19920;-23
2023/06/26 06:24:34;;;;;;;;;;;;;;;;;;5034613;28;19909;-21
2023/06/26 06:27:00;;;;;;;;;;;;;;;;;;5035557;28;20335;-21
2023/06/26 06:29:26;;;;;;;;;;;;;;;;;;5035529;28;20004;-20
2023/06/26 06:31:52;;;;;;;;;;;;;;;;;;5035622;28;19920;-20
2023/06/26 06:34:18;;;;;;;;;;;;;;;;;;5035651;28;20000;-20
2023/06/26 06:36:44;;;;;;;;;;;;;;;;;;5035521;28;20036;-21
2023/06/26 06:39:10;;;;;;;;;;;;;;;;;;5036008;28;19935;-21
2023/06/26 06:41:36;;;;;;;;;;;;;;;;;;5035749;28;19949;-23
2023/06/26 06:44:02;;;;;;;;;;;;;;;;;;5035652;28;19909;-20
2023/06/26 06:46:28;;;;;;;;;;;;;;;;;;5036177;28;20017;-20
2023/06/26 06:48:54;;;;;;;;;;;;;;;;;;5035559;28;19913;-21
2023/06/26 06:51:20;;;;;;;;;;;;;;;;;;5018288;28;19909;-23
2023/06/26 06:53:46;;;;;;;;;;;;;;;;;;5035452;28;19920;-22
2023/06/26 06:56:12;;;;;;;;;;;;;;;;;;5035544;28;19928;-20
2023/06/26 06:58:38;;;;;;;;;;;;;;;;;;5017583;28;19909;-23
2023/06/26 07:01:04;;;;;;;;;;;;;;;;;;5035346;28;20043;-21
2023/06/26 07:03:30;;;;;;;;;;;;;;;;;;5035279;28;19921;-21
2023/06/26 07:05:56;;;;;;;;;;;;;;;;;;5035234;28;19920;-21
2023/06/26 07:08:22;;;;;;;;;;;;;;;;;;5017704;28;20244;-20
2023/06/26 07:10:48;;;;;;;;;;;;;;;;;;5034994;28;19909;-21
2023/06/26 07:13:14;;;;;;;;;;;;;;;;;;5017504;28;20301;-22
2023/06/26 07:15:40;;;;;;;;;;;;;;;;;;5035030;28;19916;-21
2023/06/26 07:18:06;;;;;;;;;;;;;;;;;;5035026;28;20224;-22
2023/06/26 07:20:32;;;;;;;;;;;;;;;;;;5034896;28;19976;-21
2023/06/26 07:22:58;;;;;;;;;;;;;;;;;;5035034;28;19917;-21
2023/06/26 07:25:23;;;;;;;;;;;;;;;;;;5035170;28;19940;-21
2023/06/26 07:27:49;;;;;;;;;;;;;;;;;;5035258;28;20271;-22
2023/06/26 07:30:15;;;;;;;;;;;;;;;;;;5017579;28;20202;-22
2023/06/26 07:32:42;;;;;;;;;;;;;;;;;;5034694;28;19912;-20
2023/06/26 07:35:08;;;;;;;;;;;;;;;;;;5034670;28;19917;-20
2023/06/26 07:37:34;;;;;;;;;;;;;;;;;;5034592;28;20267;-19
2023/06/26 07:40:00;;;;;;;;;;;;;;;;;;5034931;28;20008;-21
2023/06/26 07:42:26;;;;;;;;;;;;;;;;;;5017114;28;19913;-24
2023/06/26 07:44:52;;;;;;;;;;;;;;;;;;5034977;28;19913;-24
2023/06/26 07:47:18;;;;;;;;;;;;;;;;;;5034568;28;20001;-21
2023/06/26 07:49:44;;;;;;;;;;;;;;;;;;5017122;28;19909;-22
2023/06/26 07:52:10;;;;;;;;;;;;;;;;;;5034381;28;19915;-21
2023/06/26 07:54:36;;;;;;;;;;;;;;;;;;5034586;28;20336;-21
2023/06/26 07:57:02;;;;;;;;;;;;;;;;;;5034636;28;19916;-21
2023/06/26 07:59:28;;;;;;;;;;;;;;;;;;5017202;28;20215;-21
2023/06/26 08:01:54;;;;;;;;;;;;;;;;;;5017002;28;19986;-21
2023/06/26 08:04:20;;;;;;;;;;;;;;;;;;5016867;28;20404;-23
2023/06/26 08:06:46;;;;;;;;;;;;;;;;;;5034302;28;20217;-22
2023/06/26 08:09:12;;;;;;;;;;;;;;;;;;5034468;28;19909;-20
2023/06/26 08:11:38;;;;;;;;;;;;;;;;;;5034377;28;20259;-20
2023/06/26 08:14:04;;;;;;;;;;;;;;;;;;5034430;28;19916;-21
2023/06/26 08:16:30;;;;;;;;;;;;;;;;;;5016609;28;19997;-22
2023/06/26 08:18:56;;;;;;;;;;;;;;;;;;5034213;28;19920;-20
2023/06/26 08:21:22;;;;;;;;;;;;;;;;;;5034479;28;19909;-23
2023/06/26 08:23:48;;;;;;;;;;;;;;;;;;5034174;28;19916;-20
2023/06/26 08:26:14;;;;;;;;;;;;;;;;;;5034194;28;19913;-20
2023/06/26 08:28:40;;;;;;;;;;;;;;;;;;5034222;28;20256;-20
2023/06/26 08:31:06;;;;;;;;;;;;;;;;;;5034095;28;19952;-22
2023/06/26 08:33:32;;;;;;;;;;;;;;;;;;5034168;28;19916;-21
2023/06/26 08:35:58;;;;;;;;;;;;;;;;;;5034466;28;19979;-22
2023/06/26 08:38:24;;;;;;;;;;;;;;;;;;5034335;28;19909;-20
2023/06/26 08:40:50;;;;;;;;;;;;;;;;;;5033905;28;19962;-22
2023/06/26 08:43:16;;;;;;;;;;;;;;;;;;5033936;28;19920;-20
2023/06/26 08:45:42;;;;;;;;;;;;;;;;;;5033374;28;19968;-21
2023/06/26 08:48:08;;;;;;;;;;;;;;;;;;5035091;28;20225;-20
2023/06/26 08:50:34;;;;;;;;;;;;;;;;;;5037287;28;19916;-24
2023/06/26 08:53:00;;;;;;;;;;;;;;;;;;5037138;28;19919;-22
2023/06/26 08:55:26;;;;;;;;;;;;;;;;;;5037249;28;20000;-20
2023/06/26 08:57:53;;;;;;;;;;;;;;;;;;5037387;28;19983;-20
2023/06/26 09:00:19;;;;;;;;;;;;;;;;;;5037150;28;20344;-21
2023/06/26 09:02:45;;;;;;;;;;;;;;;;;;5036854;28;19909;-21
2023/06/26 09:05:11;;;;;;;;;;;;;;;;;;5019455;28;19979;-20
2023/06/26 09:07:37;;;;;;;;;;;;;;;;;;5037069;28;19917;-21
2023/06/26 09:10:03;;;;;;;;;;;;;;;;;;5036975;28;19909;-20
2023/06/26 09:12:29;;;;;;;;;;;;;;;;;;5036959;28;20339;-22
2023/06/26 09:14:55;;;;;;;;;;;;;;;;;;5037043;28;19910;-21
2023/06/26 09:17:21;;;;;;;;;;;;;;;;;;5019395;28;19975;-21
2023/06/26 09:19:47;;;;;;;;;;;;;;;;;;5037428;28;20332;-21
2023/06/26 09:22:13;;;;;;;;;;;;;;;;;;5037416;28;20331;-20
2023/06/26 09:24:39;;;;;;;;;;;;;;;;;;5037376;28;20344;-23
2023/06/26 09:27:05;;;;;;;;;;;;;;;;;;5037334;28;19921;-21
2023/06/26 09:29:31;;;;;;;;;;;;;;;;;;5037338;28;19914;-22
2023/06/26 09:31:57;;;;;;;;;;;;;;;;;;5037425;28;20350;-22
2023/06/26 09:34:23;;;;;;;;;;;;;;;;;;5037112;28;20037;-21
2023/06/26 09:36:52;;;;;;;;;;;;;;;;;;5037313;28;19947;-20
2023/06/26 09:39:18;;;;;;;;;;;;;;;;;;5036968;28;19963;-21
2023/06/26 09:41:44;;;;;;;;;;;;;;;;;;5036862;28;19909;-22
2023/06/26 09:44:10;;;;;;;;;;;;;;;;;;5036985;28;19909;-20
2023/06/26 09:46:37;;;;;;;;;;;;;;;;;;5036688;28;20055;-20
2023/06/26 09:49:04;;;;;;;;;;;;;;;;;;5036843;28;20328;-21
2023/06/26 09:51:31;;;;;;;;;;;;;;;;;;5037129;28;20324;-20
2023/06/26 09:53:57;;;;;;;;;;;;;;;;;;5019264;28;19909;-21
2023/06/26 09:56:23;;;;;;;;;;;;;;;;;;5019232;28;20178;-21
2023/06/26 09:58:49;;;;;;;;;;;;;;;;;;5036866;28;20287;-22
2023/06/26 10:01:15;;;;;;;;;;;;;;;;;;5036634;28;19924;-21
2023/06/26 10:03:41;;;;;;;;;;;;;;;;;;5036119;28;19936;-22
2023/06/26 10:06:07;;;;;;;;;;;;;;;;;;5036658;28;20324;-20
2023/06/26 10:08:33;;;;;;;;;;;;;;;;;;5036421;28;20351;-21
2023/06/26 10:10:59;;;;;;;;;;;;;;;;;;5018756;28;20251;-21
2023/06/26 10:13:25;;;;;;;;;;;;;;;;;;5036416;28;19909;-22
2023/06/26 10:15:51;;;;;;;;;;;;;;;;;;5036221;28;19909;-21
2023/06/26 10:18:17;;;;;;;;;;;;;;;;;;5036532;28;19936;-22
2023/06/26 10:20:43;;;;;;;;;;;;;;;;;;5036187;28;19910;-21
2023/06/26 10:23:09;;;;;;;;;;;;;;;;;;5036187;28;19937;-20
2023/06/26 10:25:35;;;;;;;;;;;;;;;;;;5036192;28;19985;-20
2023/06/26 10:28:00;;;;;;;;;;;;;;;;;;5036383;28;19959;-21
2023/06/26 10:30:26;;;;;;;;;;;;;;;;;;5036077;28;19909;-21
2023/06/26 10:32:52;;;;;;;;;;;;;;;;;;5036251;28;19932;-22
2023/06/26 10:35:18;;;;;;;;;;;;;;;;;;5035970;28;19910;-22
2023/06/26 10:37:44;;;;;;;;;;;;;;;;;;5035794;28;19971;-20
2023/06/26 10:40:10;;;;;;;;;;;;;;;;;;5035803;28;20271;-21
2023/06/26 10:42:36;;;;;;;;;;;;;;;;;;5036039;28;19909;-20
2023/06/26 10:45:02;;;;;;;;;;;;;;;;;;5035656;28;19910;-21
2023/06/26 10:47:28;;;;;;;;;;;;;;;;;;5035397;28;19920;-20
2023/06/26 10:49:54;;;;;;;;;;;;;;;;;;5018082;28;20359;-22
2023/06/26 10:52:20;;;;;;;;;;;;;;;;;;5035348;28;20372;-25
2023/06/26 10:54:46;;;;;;;;;;;;;;;;;;5035487;28;19909;-20
2023/06/26 10:57:12;;;;;;;;;;;;;;;;;;5035318;28;20003;-21
2023/06/26 10:59:38;;;;;;;;;;;;;;;;;;5035089;28;19916;-22
2023/06/26 11:02:04;;;;;;;;;;;;;;;;;;5034633;28;20030;-22
2023/06/26 11:04:30;;;;;;;;;;;;;;;;;;5034536;28;20275;-20
2023/06/26 11:06:56;;;;;;;;;;;;;;;;;;5034863;28;19920;-21
2023/06/26 11:09:22;;;;;;;;;;;;;;;;;;5034633;28;19909;-21
2023/06/26 11:11:48;;;;;;;;;;;;;;;;;;5034266;28;20312;-21
2023/06/26 11:14:14;;;;;;;;;;;;;;;;;;5034757;28;20287;-22
2023/06/26 11:16:40;;;;;;;;;;;;;;;;;;5034683;28;19909;-20
2023/06/26 11:19:06;;;;;;;;;;;;;;;;;;5034445;28;20344;-22
2023/06/26 11:21:32;;;;;;;;;;;;;;;;;;5034778;28;20350;-20
2023/06/26 11:24:00;;;;;;;;;;;;;;;;;;5034728;28;20217;-22
2023/06/26 11:26:26;;;;;;;;;;;;;;;;;;5034836;28;19921;-22
2023/06/26 11:28:52;;;;;;;;;;;;;;;;;;5034856;28;19917;-21
2023/06/26 11:31:18;;;;;;;;;;;;;;;;;;5034879;28;19909;-21
2023/06/26 11:33:44;;;;;;;;;;;;;;;;;;5034894;28;19909;-21
2023/06/26 11:36:10;;;;;;;;;;;;;;;;;;5034893;28;20357;-22
2023/06/26 11:38:36;;;;;;;;;;;;;;;;;;5034782;28;20067;-21
2023/06/26 11:41:03;;;;;;;;;;;;;;;;;;5034747;28;19924;-22
2023/06/26 11:43:29;;;;;;;;;;;;;;;;;;5034476;28;20237;-21
2023/06/26 11:45:55;;;;;;;;;;;;;;;;;;5034411;28;19920;-21
2023/06/26 11:48:21;;;;;;;;;;;;;;;;;;5034404;28;20255;-20
2023/06/26 11:50:47;;;;;;;;;;;;;;;;;;5034287;28;19909;-21
2023/06/26 11:53:12;;;;;;;;;;;;;;;;;;5034867;28;20332;-22
2023/06/26 11:55:38;;;;;;;;;;;;;;;;;;5034787;28;19945;-21
2023/06/26 11:58:04;;;;;;;;;;;;;;;;;;5034908;28;20185;-22
2023/06/26 12:00:32;;;;;;;;;;;;;;;;;;5034471;28;20015;-21
2023/06/26 12:02:58;;;;;;;;;;;;;;;;;;5016870;28;19955;-20
2023/06/26 12:05:24;;;;;;;;;;;;;;;;;;5034199;28;19913;-21
2023/06/26 12:07:51;;;;;;;;;;;;;;;;;;5034488;28;19967;-21
2023/06/26 12:10:17;;;;;;;;;;;;;;;;;;5034340;28;20367;-20
2023/06/26 12:12:43;;;;;;;;;;;;;;;;;;5016637;28;19909;-20
2023/06/26 12:15:09;;;;;;;;;;;;;;;;;;5034367;28;19998;-22
2023/06/26 12:17:35;;;;;;;;;;;;;;;;;;5034208;28;20233;-22
2023/06/26 12:20:01;;;;;;;;;;;;;;;;;;5034321;28;20027;-22
2023/06/26 12:22:27;;;;;;;;;;;;;;;;;;5034842;28;20244;-20
2023/06/26 12:24:53;;;;;;;;;;;;;;;;;;5038311;28;19909;-22
2023/06/26 12:27:19;;;;;;;;;;;;;;;;;;5038273;28;20213;-21
2023/06/26 12:29:46;;;;;;;;;;;;;;;;;;5038684;28;19917;-21
2023/06/26 12:32:14;;;;;;;;;;;;;;;;;;5038204;28;19910;-20
2023/06/26 12:34:40;;;;;;;;;;;;;;;;;;5038140;28;19921;-22
2023/06/26 12:37:06;;;;;;;;;;;;;;;;;;5038119;28;20240;-21
2023/06/26 12:39:32;;;;;;;;;;;;;;;;;;5037932;28;19913;-22
2023/06/26 12:41:58;;;;;;;;;;;;;;;;;;5037774;28;19909;-20
2023/06/26 12:44:24;;;;;;;;;;;;;;;;;;5037961;28;20256;-21
2023/06/26 12:46:50;;;;;;;;;;;;;;;;;;5038125;28;19913;-22
2023/06/26 12:49:16;;;;;;;;;;;;;;;;;;5037693;28;19911;-22
2023/06/26 12:51:42;;;;;;;;;;;;;;;;;;5037926;28;19909;-20
2023/06/26 12:54:09;;;;;;;;;;;;;;;;;;5037608;28;19944;-22
2023/06/26 12:56:34;;;;;;;;;;;;;;;;;;5037688;28;19915;-21
2023/06/26 12:59:01;;;;;;;;;;;;;;;;;;5037609;28;19909;-21
2023/06/26 13:01:28;;;;;;;;;;;;;;;;;;5037712;28;20228;-22
2023/06/26 13:03:53;;;;;;;;;;;;;;;;;;5037209;28;19967;-20
2023/06/26 13:06:19;;;;;;;;;;;;;;;;;;5037653;28;19960;-21
2023/06/26 13:08:45;;;;;;;;;;;;;;;;;;5037512;28;20069;-24
2023/06/26 13:11:11;;;;;;;;;;;;;;;;;;5020139;28;20263;-21
2023/06/26 13:13:37;;;;;;;;;;;;;;;;;;5037315;28;19966;-22
2023/06/26 13:16:03;;;;;;;;;;;;;;;;;;5037316;28;20332;-21
2023/06/26 13:18:29;;;;;;;;;;;;;;;;;;5019560;28;20298;-21
2023/06/26 13:20:55;;;;;;;;;;;;;;;;;;5037836;28;19909;-21
2023/06/26 13:23:21;;;;;;;;;;;;;;;;;;5037327;28;20015;-23
2023/06/26 13:25:47;;;;;;;;;;;;;;;;;;5037371;28;20309;-21
2023/06/26 13:28:13;;;;;;;;;;;;;;;;;;5019573;28;20003;-21
2023/06/26 13:30:40;;;;;;;;;;;;;;;;;;5037169;28;20016;-21
2023/06/26 13:33:06;;;;;;;;;;;;;;;;;;5036462;28;19909;-21
2023/06/26 13:35:32;;;;;;;;;;;;;;;;;;5019903;28;20263;-21
2023/06/26 13:37:58;;;;;;;;;;;;;;;;;;5019728;28;19909;-20
2023/06/26 13:40:24;;;;;;;;;;;;;;;;;;5037258;28;20004;-23
2023/06/26 13:42:50;;;;;;;;;;;;;;;;;;5037088;28;20356;-22
2023/06/26 13:45:16;;;;;;;;;;;;;;;;;;5036804;28;20346;-21
2023/06/26 13:47:42;;;;;;;;;;;;;;;;;;5036917;28;19915;-24
2023/06/26 13:50:08;;;;;;;;;;;;;;;;;;5036834;28;20279;-22
2023/06/26 13:52:34;;;;;;;;;;;;;;;;;;5019091;28;20296;-21
2023/06/26 13:55:00;;;;;;;;;;;;;;;;;;5036611;28;20383;-21
2023/06/26 13:57:27;;;;;;;;;;;;;;;;;;5036319;28;20208;-22
2023/06/26 13:59:53;;;;;;;;;;;;;;;;;;5036710;28;19966;-25
2023/06/26 14:02:19;;;;;;;;;;;;;;;;;;5036738;28;19991;-21
2023/06/26 14:04:45;;;;;;;;;;;;;;;;;;5036197;28;20303;-21
2023/06/26 14:07:11;;;;;;;;;;;;;;;;;;5018835;28;19913;-21
2023/06/26 14:09:37;;;;;;;;;;;;;;;;;;5018740;28;19921;-20
2023/06/26 14:12:03;;;;;;;;;;;;;;;;;;5036281;28;20026;-21
2023/06/26 14:14:29;;;;;;;;;;;;;;;;;;5036759;28;19909;-20
2023/06/26 14:16:55;;;;;;;;;;;;;;;;;;5036228;28;19909;-21
2023/06/26 14:19:21;;;;;;;;;;;;;;;;;;5036555;28;19909;-21
2023/06/26 14:21:47;;;;;;;;;;;;;;;;;;5036538;28;20290;-20
2023/06/26 14:24:12;;;;;;;;;;;;;;;;;;5036135;28;19952;-21
2023/06/26 14:26:38;;;;;;;;;;;;;;;;;;5036096;28;19924;-20
2023/06/26 14:29:04;;;;;;;;;;;;;;;;;;5036003;28;19909;-21
2023/06/26 14:31:30;;;;;;;;;;;;;;;;;;5036218;28;19909;-20
2023/06/26 14:33:56;;;;;;;;;;;;;;;;;;5018427;28;19910;-20
2023/06/26 14:36:22;;;;;;;;;;;;;;;;;;5018355;28;19909;-22
2023/06/26 14:38:48;;;;;;;;;;;;;;;;;;5035971;28;19916;-21
2023/06/26 14:41:14;;;;;;;;;;;;;;;;;;5018446;28;19956;-21
2023/06/26 14:43:40;;;;;;;;;;;;;;;;;;5018083;28;19980;-20
2023/06/26 14:46:06;;;;;;;;;;;;;;;;;;5034808;28;20392;-20
2023/06/26 14:48:32;;;;;;;;;;;;;;;;;;5036472;28;19995;-22
2023/06/26 14:51:00;;;;;;;;;;;;;;;;;;5035532;28;19963;-23
2023/06/26 14:53:25;;;;;;;;;;;;;;;;;;5035273;28;19952;-21
2023/06/26 14:55:51;;;;;;;;;;;;;;;;;;5035599;28;19967;-22
2023/06/26 14:58:17;;;;;;;;;;;;;;;;;;5035494;28;19909;-21
2023/06/26 15:00:43;;;;;;;;;;;;;;;;;;5035190;28;19909;-20
2023/06/26 15:03:09;;;;;;;;;;;;;;;;;;5034856;28;20267;-20
2023/06/26 15:05:35;;;;;;;;;;;;;;;;;;5035659;28;19909;-19
2023/06/26 15:08:01;;;;;;;;;;;;;;;;;;5035214;28;19917;-22
2023/06/26 15:10:27;;;;;;;;;;;;;;;;;;5035193;28;20275;-21
2023/06/26 15:12:53;;;;;;;;;;;;;;;;;;5034961;28;19909;-20
2023/06/26 15:15:19;;;;;;;;;;;;;;;;;;5017177;28;19928;-21
2023/06/26 15:17:45;;;;;;;;;;;;;;;;;;5034273;28;19913;-20
2023/06/26 15:20:11;;;;;;;;;;;;;;;;;;5034382;28;19936;-20
2023/06/26 15:22:38;;;;;;;;;;;;;;;;;;5034581;28;19909;-20
2023/06/26 15:25:04;;;;;;;;;;;;;;;;;;5034524;28;19910;-21
2023/06/26 15:27:30;;;;;;;;;;;;;;;;;;5016699;28;20380;-21
2023/06/26 15:29:56;;;;;;;;;;;;;;;;;;5034175;28;20289;-22
2023/06/26 15:32:22;;;;;;;;;;;;;;;;;;5016702;28;20336;-22
2023/06/26 15:34:48;;;;;;;;;;;;;;;;;;5034025;28;19917;-21
2023/06/26 15:37:14;;;;;;;;;;;;;;;;;;5034443;28;19909;-20
2023/06/26 15:39:40;;;;;;;;;;;;;;;;;;5034315;28;20072;-20
2023/06/26 15:42:06;;;;;;;;;;;;;;;;;;5034504;28;20310;-22
2023/06/26 15:44:35;;;;;;;;;;;;;;;;;;5034740;28;19924;-21
2023/06/26 15:47:01;;;;;;;;;;;;;;;;;;5034396;28;20330;-21
2023/06/26 15:49:27;;;;;;;;;;;;;;;;;;5034380;28;20044;-21
2023/06/26 15:51:52;;;;;;;;;;;;;;;;;;5034677;28;19917;-21
2023/06/26 15:54:18;;;;;;;;;;;;;;;;;;5034606;28;19909;-21
2023/06/26 15:56:46;;;;;;;;;;;;;;;;;;5034154;28;19920;-21
2023/06/26 15:59:12;;;;;;;;;;;;;;;;;;5034157;28;19920;-21
2023/06/26 16:01:38;;;;;;;;;;;;;;;;;;5034221;28;19909;-21
2023/06/26 16:04:04;;;;;;;;;;;;;;;;;;5034056;28;20320;-19
2023/06/26 16:06:30;;;;;;;;;;;;;;;;;;5034313;28;19913;-19
2023/06/26 16:08:56;;;;;;;;;;;;;;;;;;5034409;28;20190;-21
2023/06/26 16:11:22;;;;;;;;;;;;;;;;;;5034188;28;19974;-21
2023/06/26 16:13:48;;;;;;;;;;;;;;;;;;5034320;28;19909;-20
2023/06/26 16:16:14;;;;;;;;;;;;;;;;;;5016917;28;19909;-21
2023/06/26 16:18:40;;;;;;;;;;;;;;;;;;5016863;28;19916;-20
2023/06/26 16:21:06;;;;;;;;;;;;;;;;;;5034925;28;19910;-20
2023/06/26 16:23:33;;;;;;;;;;;;;;;;;;5034266;28;19988;-21
2023/06/26 16:25:59;;;;;;;;;;;;;;;;;;5034255;28;19913;-20
2023/06/26 16:28:25;;;;;;;;;;;;;;;;;;5016933;28;19913;-21
2023/06/26 16:30:51;;;;;;;;;;;;;;;;;;5034191;28;20378;-21
2023/06/26 16:33:17;;;;;;;;;;;;;;;;;;5034054;28;19909;-19
2023/06/26 16:35:43;;;;;;;;;;;;;;;;;;5016219;28;20252;-21
2023/06/26 16:38:09;;;;;;;;;;;;;;;;;;5033814;28;20282;-21
2023/06/26 16:40:35;;;;;;;;;;;;;;;;;;5016394;28;19920;-20